createdAt,value
2018-12-25T00:00:45.866Z,3.17
2018-12-25T00:03:15.506Z,3.17
2018-12-25T00:05:45.125Z,2.50
2018-12-25T00:08:15.039Z,3.00
2018-12-25T00:10:44.750Z,3.00
2018-12-25T00:13:14.450Z,3.27
2018-12-25T00:15:44.056Z,2.90
2018-12-25T00:18:14.072Z,3.10
2018-12-25T00:20:43.674Z,2.37
2018-12-25T00:23:13.553Z,2.70
2018-12-25T00:25:43.499Z,3.40
2018-12-25T00:28:13.112Z,2.60
2018-12-25T00:30:42.796Z,2.97
2018-12-25T00:33:12.417Z,2.63
2018-12-25T00:35:42.353Z,2.70
2018-12-25T00:38:11.981Z,2.80
2018-12-25T00:40:41.873Z,2.37
2018-12-25T00:43:11.488Z,2.50
2018-12-25T00:45:41.376Z,2.33
2018-12-25T00:48:11.324Z,2.03
2018-12-25T00:50:40.929Z,2.27
2018-12-25T00:53:10.548Z,2.43
2018-12-25T00:55:40.396Z,2.27
2018-12-25T00:58:10.026Z,2.50
2018-12-25T01:00:39.640Z,2.40
2018-12-25T01:03:09.502Z,3.10
2018-12-25T01:05:39.469Z,2.40
2018-12-25T01:08:09.115Z,2.30
2018-12-25T01:10:38.720Z,2.47
2018-12-25T01:13:08.337Z,2.30
2018-12-25T01:15:37.976Z,2.70
2018-12-25T01:18:07.918Z,2.43
2018-12-25T01:20:37.530Z,2.53
2018-12-25T01:23:07.473Z,2.60
2018-12-25T01:25:37.085Z,2.40
2018-12-25T01:28:07.446Z,2.57
2018-12-25T01:30:37.049Z,2.30
2018-12-25T01:33:07.005Z,2.30
2018-12-25T01:35:36.608Z,2.20
2018-12-25T01:38:06.235Z,2.27
2018-12-25T01:40:36.017Z,2.03
2018-12-25T01:43:06.204Z,2.00
2018-12-25T01:45:35.849Z,2.30
2018-12-25T01:48:05.472Z,1.87
2018-12-25T01:50:35.595Z,2.07
2018-12-25T01:53:05.226Z,2.13
2018-12-25T01:55:34.854Z,2.03
2018-12-25T01:58:04.566Z,1.90
2018-12-25T02:00:34.397Z,1.70
2018-12-25T02:03:04.345Z,1.93
2018-12-25T02:05:33.966Z,2.10
2018-12-25T02:08:03.824Z,1.70
2018-12-25T02:10:33.724Z,1.90
2018-12-25T02:13:03.337Z,1.90
2018-12-25T02:15:32.952Z,1.90
2018-12-25T02:18:02.644Z,2.10
2018-12-25T02:20:32.253Z,2.20
2018-12-25T02:23:02.169Z,2.00
2018-12-25T02:25:31.820Z,1.97
2018-12-25T02:28:02.335Z,2.12
2018-12-25T02:30:32.247Z,1.83
2018-12-25T02:33:01.964Z,1.90
2018-12-25T02:35:32.386Z,1.90
2018-12-25T02:38:02.300Z,1.87
2018-12-25T02:40:31.926Z,1.53
2018-12-25T02:43:01.770Z,2.27
2018-12-25T02:45:31.389Z,1.60
2018-12-25T02:48:01.252Z,1.50
2018-12-25T02:50:31.993Z,1.30
2018-12-25T02:53:01.616Z,1.60
2018-12-25T02:55:31.233Z,1.60
2018-12-25T02:58:00.846Z,1.60
2018-12-25T03:00:30.466Z,1.80
2018-12-25T03:03:00.081Z,2.00
2018-12-25T03:05:30.014Z,2.20
2018-12-25T03:07:59.674Z,1.80
2018-12-25T03:10:29.292Z,1.90
2018-12-25T03:12:58.902Z,1.63
2018-12-25T03:15:28.525Z,1.63
2018-12-25T03:17:58.717Z,1.90
2018-12-25T03:20:28.334Z,1.80
2018-12-25T03:22:58.024Z,1.93
2018-12-25T03:25:28.062Z,2.30
2018-12-25T03:27:58.067Z,1.60
2018-12-25T03:30:28.101Z,2.10
2018-12-25T03:32:58.146Z,2.20
2018-12-25T03:35:28.130Z,2.03
2018-12-25T03:37:58.176Z,2.10
2018-12-25T03:40:28.176Z,2.03
2018-12-25T03:42:58.185Z,1.70
2018-12-25T03:45:28.149Z,1.90
2018-12-25T03:47:58.265Z,1.90
2018-12-25T03:50:28.998Z,2.30
2018-12-25T03:52:58.626Z,1.83
2018-12-25T03:55:28.263Z,1.70
2018-12-25T03:57:58.302Z,2.00
2018-12-25T04:00:28.238Z,2.17
2018-12-25T04:02:58.346Z,2.00
2018-12-25T04:05:28.354Z,1.93
2018-12-25T04:07:58.626Z,1.83
2018-12-25T04:10:28.524Z,1.77
2018-12-25T04:12:58.404Z,1.70
2018-12-25T04:15:28.416Z,2.03
2018-12-25T04:17:58.742Z,1.80
2018-12-25T04:20:28.454Z,2.00
2018-12-25T04:22:58.484Z,1.80
2018-12-25T04:25:28.402Z,1.83
2018-12-25T04:27:58.421Z,1.73
2018-12-25T04:30:29.052Z,2.03
2018-12-25T04:32:58.915Z,1.87
2018-12-25T04:35:28.564Z,1.90
2018-12-25T04:37:58.491Z,1.73
2018-12-25T04:40:28.496Z,2.53
2018-12-25T04:42:58.844Z,1.60
2018-12-25T04:45:28.539Z,2.17
2018-12-25T04:47:58.563Z,2.40
2018-12-25T04:50:29.804Z,2.07
2018-12-25T04:52:59.498Z,1.87
2018-12-25T04:55:29.109Z,2.03
2018-12-25T04:57:59.004Z,1.80
2018-12-25T05:00:28.894Z,1.97
2018-12-25T05:02:58.694Z,2.00
2018-12-25T05:05:28.931Z,1.97
2018-12-25T05:07:59.010Z,1.80
2018-12-25T05:10:28.829Z,1.90
2018-12-25T05:12:58.866Z,2.10
2018-12-25T05:15:29.181Z,2.40
2018-12-25T05:17:59.507Z,2.10
2018-12-25T05:20:37.670Z,1.90
2018-12-25T05:23:01.136Z,2.37
2018-12-25T05:25:30.814Z,2.23
2018-12-25T05:28:00.804Z,2.13
2018-12-25T05:30:30.409Z,2.10
2018-12-25T05:33:00.201Z,1.90
2018-12-25T05:35:30.513Z,1.93
2018-12-25T05:38:00.416Z,1.77
2018-12-25T05:40:30.029Z,2.00
2018-12-25T05:43:00.125Z,1.90
2018-12-25T05:45:29.741Z,1.83
2018-12-25T05:47:59.670Z,1.87
2018-12-25T05:50:30.034Z,1.70
2018-12-25T05:52:59.678Z,1.77
2018-12-25T05:55:29.283Z,2.10
2018-12-25T05:57:59.252Z,1.80
2018-12-25T06:00:29.094Z,1.80
2018-12-25T06:02:59.533Z,2.40
2018-12-25T06:05:29.397Z,2.33
2018-12-25T06:07:59.084Z,2.20
2018-12-25T06:10:29.098Z,2.30
2018-12-25T06:12:59.329Z,2.20
2018-12-25T06:15:29.146Z,1.50
2018-12-25T06:17:59.138Z,2.03
2018-12-25T06:20:29.404Z,2.20
2018-12-25T06:22:59.665Z,2.13
2018-12-25T06:25:29.322Z,2.10
2018-12-25T06:27:59.200Z,1.83
2018-12-25T06:30:29.484Z,2.10
2018-12-25T06:32:59.316Z,1.67
2018-12-25T06:35:29.333Z,1.73
2018-12-25T06:37:59.289Z,1.90
2018-12-25T06:40:29.385Z,1.93
2018-12-25T06:42:59.403Z,1.57
2018-12-25T06:45:29.420Z,1.50
2018-12-25T06:47:59.323Z,2.37
2018-12-25T06:50:29.583Z,2.73
2018-12-25T06:52:59.392Z,1.90
2018-12-25T06:55:29.413Z,1.90
2018-12-25T06:57:59.414Z,1.80
2018-12-25T07:00:29.432Z,1.60
2018-12-25T07:02:59.457Z,1.63
2018-12-25T07:05:29.781Z,1.60
2018-12-25T07:07:59.484Z,1.80
2018-12-25T07:10:29.504Z,1.70
2018-12-25T07:12:59.809Z,1.80
2018-12-25T07:15:33.250Z,1.50
2018-12-25T07:18:01.171Z,2.20
2018-12-25T07:20:30.861Z,1.47
2018-12-25T07:23:00.746Z,1.70
2018-12-25T07:25:30.376Z,2.17
2018-12-25T07:27:59.991Z,1.87
2018-12-25T07:30:29.757Z,1.40
2018-12-25T07:32:59.804Z,1.83
2018-12-25T07:35:29.592Z,1.80
2018-12-25T07:38:00.582Z,1.60
2018-12-25T07:40:30.213Z,2.00
2018-12-25T07:43:00.156Z,1.43
2018-12-25T07:45:30.225Z,1.33
2018-12-25T07:48:00.236Z,1.70
2018-12-25T07:50:30.820Z,1.63
2018-12-25T07:53:01.509Z,1.87
2018-12-25T07:55:31.501Z,1.70
2018-12-25T07:58:01.126Z,1.90
2018-12-25T08:00:31.845Z,1.60
2018-12-25T08:03:01.720Z,1.70
2018-12-25T08:05:31.335Z,1.40
2018-12-25T08:08:01.180Z,1.77
2018-12-25T08:10:31.073Z,1.70
2018-12-25T08:13:00.678Z,1.70
2018-12-25T08:15:30.282Z,1.67
2018-12-25T08:17:59.893Z,1.57
2018-12-25T08:20:29.925Z,2.13
2018-12-25T08:23:02.741Z,2.03
2018-12-25T08:25:31.527Z,2.30
2018-12-25T08:28:01.150Z,2.20
2018-12-25T08:30:30.770Z,2.07
2018-12-25T08:33:00.637Z,2.07
2018-12-25T08:35:30.242Z,1.93
2018-12-25T08:38:00.744Z,2.00
2018-12-25T08:40:30.649Z,1.97
2018-12-25T08:43:00.278Z,2.07
2018-12-25T08:45:30.130Z,1.60
2018-12-25T08:48:00.024Z,1.50
2018-12-25T08:50:30.759Z,1.63
2018-12-25T08:53:00.454Z,2.20
2018-12-25T08:55:30.465Z,1.93
2018-12-25T08:58:00.118Z,1.80
2018-12-25T09:00:30.412Z,1.63
2018-12-25T09:03:00.148Z,1.80
2018-12-25T09:05:30.140Z,1.40
2018-12-25T09:08:00.466Z,1.53
2018-12-25T09:10:30.485Z,1.60
2018-12-25T09:13:00.466Z,1.50
2018-12-25T09:15:30.208Z,1.80
2018-12-25T09:18:00.821Z,2.57
2018-12-25T09:20:30.441Z,2.00
2018-12-25T09:23:00.280Z,1.90
2018-12-25T09:25:30.306Z,1.57
2018-12-25T09:28:00.620Z,1.80
2018-12-25T09:30:30.334Z,2.57
2018-12-25T09:33:00.357Z,1.93
2018-12-25T09:35:30.633Z,2.00
2018-12-25T09:38:00.349Z,1.50
2018-12-25T09:40:30.405Z,2.13
2018-12-25T09:43:00.749Z,1.70
2018-12-25T09:45:30.450Z,1.93
2018-12-25T09:48:00.786Z,1.70
2018-12-25T09:50:31.315Z,1.53
2018-12-25T09:53:00.946Z,1.87
2018-12-25T09:55:30.548Z,1.80
2018-12-25T09:58:00.900Z,2.03
2018-12-25T10:00:30.561Z,2.00
2018-12-25T10:03:00.594Z,1.90
2018-12-25T10:05:30.589Z,2.27
2018-12-25T10:08:00.817Z,1.82
2018-12-25T10:10:31.016Z,1.70
2018-12-25T10:13:01.173Z,2.90
2018-12-25T10:15:30.780Z,2.30
2018-12-25T10:18:01.193Z,2.37
2018-12-25T10:20:30.809Z,2.40
2018-12-25T10:23:01.220Z,2.40
2018-12-25T10:25:30.859Z,2.47
2018-12-25T10:28:01.160Z,4.00
2018-12-25T10:30:30.890Z,2.87
2018-12-25T10:33:01.267Z,2.70
2018-12-25T10:35:31.033Z,2.60
2018-12-25T10:38:01.169Z,2.70
2018-12-25T10:40:31.073Z,2.60
2018-12-25T10:43:01.454Z,2.40
2018-12-25T10:45:31.142Z,3.10
2018-12-25T10:48:01.195Z,3.20
2018-12-25T10:50:31.463Z,3.30
2018-12-25T10:53:01.468Z,3.40
2018-12-25T10:55:31.769Z,3.00
2018-12-25T10:58:01.912Z,3.33
2018-12-25T11:00:40.317Z,3.53
2018-12-25T11:03:09.937Z,4.60
2018-12-25T11:05:39.557Z,3.87
2018-12-25T11:08:09.174Z,4.47
2018-12-25T11:10:39.125Z,4.87
2018-12-25T11:13:08.741Z,4.87
2018-12-25T11:15:38.634Z,4.90
2018-12-25T11:18:08.288Z,4.67
2018-12-25T11:20:37.909Z,4.50
2018-12-25T11:23:07.518Z,6.37
2018-12-25T11:25:37.292Z,5.03
2018-12-25T11:28:06.914Z,4.20
2018-12-25T11:30:36.769Z,4.50
2018-12-25T11:33:06.448Z,4.90
2018-12-25T11:35:36.084Z,4.87
2018-12-25T11:38:05.689Z,4.80
2018-12-25T11:40:35.901Z,4.53
2018-12-25T11:43:05.790Z,4.83
2018-12-25T11:45:36.829Z,4.13
2018-12-25T11:48:06.674Z,5.07
2018-12-25T11:50:36.604Z,4.47
2018-12-25T11:53:06.248Z,4.47
2018-12-25T11:55:35.958Z,3.43
2018-12-25T11:58:05.681Z,4.60
2018-12-25T12:00:35.804Z,6.20
2018-12-25T12:03:05.568Z,4.30
2018-12-25T12:05:35.274Z,5.73
2018-12-25T12:08:05.918Z,4.40
2018-12-25T12:10:35.669Z,4.63
2018-12-25T12:13:05.367Z,4.33
2018-12-25T12:15:35.047Z,4.70
2018-12-25T12:18:04.695Z,3.43
2018-12-25T12:20:34.385Z,3.73
2018-12-25T12:23:04.121Z,4.80
2018-12-25T12:25:33.786Z,4.30
2018-12-25T12:28:03.754Z,4.50
2018-12-25T12:30:33.403Z,4.03
2018-12-25T12:33:03.217Z,3.77
2018-12-25T12:35:32.901Z,4.67
2018-12-25T12:38:02.922Z,3.80
2018-12-25T12:40:33.560Z,3.43
2018-12-25T12:43:03.325Z,3.60
2018-12-25T12:45:33.014Z,3.63
2018-12-25T12:48:02.830Z,3.00
2018-12-25T12:50:32.852Z,3.90
2018-12-25T12:53:03.002Z,3.60
2018-12-25T12:55:32.809Z,3.03
2018-12-25T12:58:02.743Z,3.20
2018-12-25T13:00:32.489Z,3.33
2018-12-25T13:03:02.352Z,3.30
2018-12-25T13:05:32.275Z,3.17
2018-12-25T13:08:02.596Z,3.60
2018-12-25T13:10:32.641Z,3.73
2018-12-25T13:13:02.520Z,3.73
2018-12-25T13:15:32.573Z,4.07
2018-12-25T13:18:02.378Z,3.77
2018-12-25T13:20:32.357Z,3.37
2018-12-25T13:23:02.377Z,3.60
2018-12-25T13:25:32.328Z,4.47
2018-12-25T13:28:02.507Z,3.67
2018-12-25T13:30:32.657Z,4.10
2018-12-25T13:33:02.590Z,4.80
2018-12-25T13:35:32.390Z,4.97
2018-12-25T13:38:02.432Z,3.83
2018-12-25T13:40:32.408Z,4.23
2018-12-25T13:43:02.557Z,3.90
2018-12-25T13:45:32.682Z,4.00
2018-12-25T13:48:02.597Z,3.70
2018-12-25T13:50:32.819Z,3.60
2018-12-25T13:53:03.223Z,4.13
2018-12-25T13:55:33.670Z,3.80
2018-12-25T13:58:03.665Z,3.30
2018-12-25T14:00:33.324Z,4.00
2018-12-25T14:03:03.164Z,4.23
2018-12-25T14:05:32.818Z,3.67
2018-12-25T14:08:03.087Z,3.97
2018-12-25T14:10:32.764Z,4.10
2018-12-25T14:13:03.042Z,4.00
2018-12-25T14:15:32.685Z,4.53
2018-12-25T14:18:02.624Z,4.63
2018-12-25T14:20:32.813Z,4.70
2018-12-25T14:23:11.052Z,4.73
2018-12-25T14:25:34.084Z,4.53
2018-12-25T14:28:03.726Z,5.37
2018-12-25T14:30:33.394Z,4.70
2018-12-25T14:33:03.230Z,3.70
2018-12-25T14:35:32.908Z,4.53
2018-12-25T14:38:02.672Z,5.50
2018-12-25T14:40:32.647Z,4.93
2018-12-25T14:43:02.777Z,5.23
2018-12-25T14:45:32.716Z,5.00
2018-12-25T14:48:02.778Z,5.77
2018-12-25T14:50:33.341Z,5.93
2018-12-25T14:53:03.543Z,5.30
2018-12-25T14:55:33.183Z,4.97
2018-12-25T14:58:02.907Z,5.10
2018-12-25T15:00:32.896Z,4.80
2018-12-25T15:03:03.238Z,5.45
2018-12-25T15:05:32.952Z,6.30
2018-12-25T15:08:03.056Z,4.73
2018-12-25T15:10:33.271Z,4.97
2018-12-25T15:13:03.579Z,4.93
2018-12-25T15:15:33.246Z,4.67
2018-12-25T15:18:03.889Z,4.60
2018-12-25T15:20:33.533Z,4.93
2018-12-25T15:23:04.113Z,3.93
2018-12-25T15:25:33.802Z,4.50
2018-12-25T15:28:03.585Z,5.20
2018-12-25T15:30:33.210Z,4.23
2018-12-25T15:33:03.625Z,3.90
2018-12-25T15:35:33.498Z,4.50
2018-12-25T15:38:03.723Z,4.47
2018-12-25T15:40:33.677Z,5.17
2018-12-25T15:43:04.288Z,5.00
2018-12-25T15:45:34.506Z,4.57
2018-12-25T15:48:04.488Z,5.10
2018-12-25T15:50:34.840Z,4.33
2018-12-25T15:53:04.475Z,5.17
2018-12-25T15:55:34.142Z,5.43
2018-12-25T15:58:04.013Z,5.43
2018-12-25T16:00:33.716Z,4.73
2018-12-25T16:03:03.748Z,5.33
2018-12-25T16:05:33.369Z,4.77
2018-12-25T16:08:03.765Z,5.40
2018-12-25T16:10:33.422Z,5.43
2018-12-25T16:13:03.689Z,5.63
2018-12-25T16:15:33.333Z,5.03
2018-12-25T16:18:03.820Z,5.70
2018-12-25T16:20:33.775Z,5.50
2018-12-25T16:23:03.994Z,5.87
2018-12-25T16:25:33.617Z,6.63
2018-12-25T16:28:03.618Z,5.87
2018-12-25T16:30:33.515Z,6.40
2018-12-25T16:33:04.009Z,5.47
2018-12-25T16:35:33.897Z,6.23
2018-12-25T16:38:04.105Z,6.10
2018-12-25T16:40:34.103Z,5.60
2018-12-25T16:43:04.240Z,6.30
2018-12-25T16:45:34.170Z,5.40
2018-12-25T16:48:03.791Z,5.93
2018-12-25T16:50:33.613Z,6.73
2018-12-25T16:53:03.901Z,6.70
2018-12-25T16:55:33.811Z,5.53
2018-12-25T16:58:03.686Z,5.40
2018-12-25T17:00:33.667Z,5.53
2018-12-25T17:03:03.681Z,5.07
2018-12-25T17:05:33.592Z,5.60
2018-12-25T17:08:03.694Z,4.80
2018-12-25T17:10:33.672Z,4.97
2018-12-25T17:13:03.652Z,5.00
2018-12-25T17:15:33.742Z,5.50
2018-12-25T17:18:03.741Z,5.17
2018-12-25T17:20:33.824Z,5.40
2018-12-25T17:23:03.733Z,5.70
2018-12-25T17:25:33.761Z,5.87
2018-12-25T17:28:04.087Z,5.80
2018-12-25T17:30:33.969Z,5.13
2018-12-25T17:33:03.686Z,5.07
2018-12-25T17:35:33.746Z,4.97
2018-12-25T17:38:04.037Z,4.67
2018-12-25T17:40:37.199Z,4.67
2018-12-25T17:43:06.823Z,4.67
2018-12-25T17:45:36.436Z,4.63
2018-12-25T17:48:06.353Z,4.27
2018-12-25T17:50:35.989Z,3.73
2018-12-25T17:53:06.234Z,4.03
2018-12-25T17:55:36.061Z,3.40
2018-12-25T17:58:06.746Z,3.70
2018-12-25T18:00:36.393Z,3.90
2018-12-25T18:03:06.014Z,4.17
2018-12-25T18:05:35.792Z,3.50
2018-12-25T18:08:05.602Z,3.70
2018-12-25T18:10:35.264Z,3.40
2018-12-25T18:13:04.884Z,3.47
2018-12-25T18:15:34.516Z,3.47
2018-12-25T18:18:04.138Z,3.60
2018-12-25T18:20:34.624Z,3.80
2018-12-25T18:23:04.310Z,3.43
2018-12-25T18:25:34.100Z,3.70
2018-12-25T18:28:04.202Z,4.03
2018-12-25T18:30:34.522Z,3.90
2018-12-25T18:33:04.521Z,3.67
2018-12-25T18:35:35.123Z,3.77
2018-12-25T18:38:04.736Z,4.00
2018-12-25T18:40:34.701Z,4.40
2018-12-25T18:43:04.376Z,4.10
2018-12-25T18:45:34.280Z,3.87
2018-12-25T18:48:04.539Z,4.20
2018-12-25T18:50:35.522Z,4.37
2018-12-25T18:53:05.150Z,4.43
2018-12-25T18:55:34.789Z,5.30
2018-12-25T18:58:04.404Z,4.90
2018-12-25T19:00:34.409Z,5.40
2018-12-25T19:03:04.614Z,4.80
2018-12-25T19:05:34.381Z,5.20
2018-12-25T19:08:04.697Z,4.70
2018-12-25T19:10:34.450Z,4.90
2018-12-25T19:13:04.441Z,4.63
2018-12-25T19:15:35.476Z,4.87
2018-12-25T19:18:07.052Z,5.13
2018-12-25T19:20:36.766Z,4.40
2018-12-25T19:23:06.634Z,4.13
2018-12-25T19:25:36.495Z,3.90
2018-12-25T19:28:07.710Z,4.20
2018-12-25T19:30:39.007Z,4.27
2018-12-25T19:33:08.620Z,4.27
2018-12-25T19:35:38.580Z,3.70
2018-12-25T19:38:08.498Z,3.97
2018-12-25T19:40:38.159Z,3.73
2018-12-25T19:43:08.075Z,3.90
2018-12-25T19:45:38.034Z,4.27
2018-12-25T19:48:07.983Z,4.10
2018-12-25T19:50:38.056Z,3.57
2018-12-25T19:53:08.310Z,3.80
2018-12-25T19:55:38.009Z,3.80
2018-12-25T19:58:07.717Z,3.93
2018-12-25T20:00:37.368Z,3.87
2018-12-25T20:03:23.045Z,3.80
2018-12-25T20:06:29.723Z,3.30
2018-12-25T20:09:36.081Z,4.07
2018-12-25T20:13:02.420Z,5.60
2018-12-25T20:16:02.456Z,4.03
2018-12-25T20:19:21.071Z,3.80
2018-12-25T20:22:47.417Z,3.90
2018-12-25T20:25:49.282Z,3.73
2018-12-25T20:29:01.528Z,3.07
2018-12-25T20:32:02.449Z,3.90
2018-12-25T20:35:02.036Z,2.97
2018-12-25T20:38:24.201Z,3.73
2018-12-25T20:41:24.143Z,2.83
2018-12-25T20:44:46.662Z,4.10
2018-12-25T20:47:46.601Z,3.67
2018-12-25T20:51:12.897Z,3.70
2018-12-25T20:54:17.452Z,3.20
2018-12-25T20:57:28.816Z,3.40
2018-12-25T21:00:43.141Z,3.37
2018-12-25T21:03:46.371Z,3.63
2018-12-25T21:06:57.039Z,3.20
2018-12-25T21:10:07.341Z,3.10
2018-12-25T21:13:13.654Z,3.07
2018-12-25T21:16:05.212Z,2.90
2018-12-25T21:19:48.011Z,3.30
2018-12-25T21:22:53.641Z,3.13
2018-12-25T21:25:59.553Z,3.00
2018-12-25T21:28:33.258Z,3.27
2018-12-25T21:31:04.333Z,3.73
2018-12-25T21:33:34.089Z,3.60
2018-12-25T21:36:03.878Z,3.50
2018-12-25T21:38:33.513Z,3.30
2018-12-25T21:41:03.872Z,3.50
2018-12-25T21:43:33.883Z,4.93
2018-12-25T21:46:03.576Z,4.03
2018-12-25T21:48:34.321Z,3.90
2018-12-25T21:51:04.010Z,3.50
2018-12-25T21:53:34.377Z,3.57
2018-12-25T21:56:04.283Z,4.40
2018-12-25T21:58:35.108Z,4.30
2018-12-25T22:01:05.044Z,4.17
2018-12-25T22:03:35.297Z,3.83
2018-12-25T22:06:05.162Z,3.80
2018-12-25T22:08:34.944Z,3.77
2018-12-25T22:11:04.834Z,4.03
2018-12-25T22:13:34.723Z,4.27
2018-12-25T22:16:04.368Z,3.70
2018-12-25T22:18:34.046Z,4.20
2018-12-25T22:21:03.675Z,3.47
2018-12-25T22:23:33.593Z,4.03
2018-12-25T22:26:03.356Z,4.10
2018-12-25T22:28:33.141Z,3.90
2018-12-25T22:31:02.933Z,4.57
2018-12-25T22:33:32.813Z,4.47
2018-12-25T22:36:02.946Z,3.87
2018-12-25T22:38:32.564Z,4.50
2018-12-25T22:41:02.170Z,4.73
2018-12-25T22:43:32.094Z,4.80
2018-12-25T22:46:01.714Z,5.00
2018-12-25T22:48:31.337Z,5.43
2018-12-25T22:51:00.953Z,5.43
2018-12-25T22:53:30.584Z,5.60
2018-12-25T22:56:00.217Z,6.40
2018-12-25T22:58:29.845Z,6.43
2018-12-25T23:00:59.538Z,7.13
2018-12-25T23:03:29.161Z,6.60
2018-12-25T23:05:58.773Z,6.23
2018-12-25T23:08:28.631Z,6.83
2018-12-25T23:10:58.504Z,7.23
2018-12-25T23:13:28.149Z,6.57
2018-12-25T23:15:57.773Z,7.17
2018-12-25T23:18:27.393Z,7.17
2018-12-25T23:20:57.005Z,7.73
2018-12-25T23:23:26.620Z,8.23
2018-12-25T23:25:56.574Z,8.43
2018-12-25T23:28:26.549Z,8.30
2018-12-25T23:30:56.166Z,8.33
2018-12-25T23:33:26.113Z,7.30
2018-12-25T23:35:55.988Z,7.50
2018-12-25T23:38:25.613Z,8.00
2018-12-25T23:40:55.569Z,7.13
2018-12-25T23:43:25.255Z,8.10
2018-12-25T23:45:54.875Z,6.07
2018-12-25T23:48:24.494Z,8.07
2018-12-25T23:50:54.101Z,7.83
2018-12-25T23:53:23.722Z,8.43
2018-12-25T23:55:53.346Z,7.57
2018-12-25T23:58:22.969Z,7.40
